Time;durP1;ratioP1;P1;durP2;ratioP2;P2;SDS_P1;SDS_P2;PMS_P1;PMS_P2;Temp;Humidity;BMP_temperature;BMP_pressure;BME280_temperature;BME280_humidity;BME280_pressure;Samples;Min_cycle;Max_cycle;Signal;HPM_P1;HPM_P2
2022/04/06 00:01:44;;;;;;;14.57;10.13;;;5.80;99.90;;;;;;5014680;28;20191;-63
2022/04/06 00:04:10;;;;;;;15.00;9.47;;;5.80;99.90;;;;;;5032557;28;20628;-63
2022/04/06 00:06:35;;;;;;;15.33;10.23;;;5.80;99.90;;;;;;5032605;28;20266;-63
2022/04/06 00:09:02;;;;;;;17.97;9.97;;;5.80;99.90;;;;;;5032207;28;20279;-62
2022/04/06 00:11:28;;;;;;;16.90;10.03;;;5.80;99.90;;;;;;5032410;28;20268;-62
2022/04/06 00:13:54;;;;;;;16.03;9.77;;;5.80;99.90;;;;;;5032485;28;20669;-62
2022/04/06 00:16:20;;;;;;;15.50;9.70;;;5.80;99.90;;;;;;5032406;28;20734;-63
2022/04/06 00:18:45;;;;;;;15.97;10.57;;;5.80;99.90;;;;;;4998093;28;20288;-62
2022/04/06 00:21:12;;;;;;;15.20;9.90;;;5.80;99.90;;;;;;5032309;28;20223;-62
2022/04/06 00:23:38;;;;;;;17.90;10.53;;;5.80;99.90;;;;;;5014429;28;20184;-62
2022/04/06 00:26:03;;;;;;;17.77;10.47;;;5.70;99.90;;;;;;5028592;28;20185;-62
2022/04/06 00:28:30;;;;;;;19.00;9.93;;;5.70;99.90;;;;;;4994832;28;20192;-64
2022/04/06 00:30:56;;;;;;;15.63;10.80;;;5.60;99.90;;;;;;4994680;28;20592;-63
2022/04/06 00:33:22;;;;;;;17.83;10.80;;;5.60;99.90;;;;;;5012775;28;20242;-62
2022/04/06 00:35:48;;;;;;;18.37;10.73;;;5.50;99.90;;;;;;5024231;28;20213;-62
2022/04/06 00:38:14;;;;;;;22.00;10.63;;;5.50;99.90;;;;;;5032238;28;20509;-62
2022/04/06 00:40:40;;;;;;;17.07;10.83;;;5.50;99.90;;;;;;5031829;28;20265;-62
2022/04/06 00:43:13;;;;;;;14.70;9.47;;;5.50;99.90;;;;;;5014443;28;20711;-62
2022/04/06 00:45:40;;;;;;;17.70;10.57;;;5.40;99.90;;;;;;5031862;28;20190;-62
2022/04/06 00:48:07;;;;;;;19.73;10.90;;;5.40;99.90;;;;;;5032173;28;20190;-63
2022/04/06 00:50:33;;;;;;;16.53;10.73;;;5.50;99.90;;;;;;5013818;28;20280;-63
2022/04/06 00:53:00;;;;;;;19.60;10.53;;;5.50;99.90;;;;;;5031828;28;20169;-62
2022/04/06 00:55:31;;;;;;;19.77;11.03;;;5.50;99.90;;;;;;5031594;28;20291;-62
2022/04/06 00:57:58;;;;;;;22.57;11.07;;;5.40;99.90;;;;;;5031566;28;20498;-62
2022/04/06 01:00:24;;;;;;;18.03;10.53;;;5.40;99.90;;;;;;5031742;28;20188;-62
2022/04/06 01:02:50;;;;;;;17.17;10.93;;;5.40;99.90;;;;;;5013619;28;20188;-62
2022/04/06 01:05:16;;;;;;;18.03;11.10;;;5.30;99.90;;;;;;5035435;28;20179;-63
2022/04/06 01:07:50;;;;;;;18.43;10.50;;;5.20;99.90;;;;;;5035436;28;20650;-63
2022/04/06 01:10:17;;;;;;;19.30;10.90;;;5.10;99.90;;;;;;5035942;28;20275;-63
2022/04/06 01:12:48;;;;;;;20.60;12.43;;;5.00;99.90;;;;;;5035113;28;20187;-62
2022/04/06 01:15:16;;;;;;;20.43;11.57;;;4.90;99.90;;;;;;5036000;28;20162;-62
2022/04/06 01:17:43;;;;;;;23.80;13.17;;;4.80;99.90;;;;;;5035470;28;20305;-62
2022/04/06 01:20:10;;;;;;;21.40;12.03;;;4.70;99.90;;;;;;5035701;28;20789;-62
2022/04/06 01:22:36;;;;;;;20.10;12.03;;;4.60;99.90;;;;;;5035370;28;20179;-62
2022/04/06 01:25:03;;;;;;;21.33;12.43;;;4.60;99.90;;;;;;5001833;28;20542;-62
2022/04/06 01:27:29;;;;;;;21.13;11.17;;;4.60;99.90;;;;;;5019897;28;20492;-62
2022/04/06 01:29:55;;;;;;;33.30;13.17;;;4.60;99.90;;;;;;4997586;28;20191;-62
2022/04/06 01:32:23;;;;;;;25.33;12.43;;;4.60;99.90;;;;;;4998299;28;20183;-62
2022/04/06 01:34:50;;;;;;;23.13;12.83;;;4.60;99.90;;;;;;5020005;28;20181;-62
2022/04/06 01:37:17;;;;;;;23.60;13.47;;;4.60;99.90;;;;;;5035333;28;20277;-62
2022/04/06 01:39:45;;;;;;;21.47;12.83;;;4.50;99.90;;;;;;5034995;28;20182;-62
2022/04/06 01:42:12;;;;;;;37.30;13.33;;;4.40;99.90;;;;;;5035320;28;20207;-63
2022/04/06 01:44:38;;;;;;;25.13;13.73;;;4.30;99.90;;;;;;5034794;28;20252;-63
2022/04/06 01:47:06;;;;;;;24.23;12.43;;;4.30;99.90;;;;;;5034961;28;20702;-63
2022/04/06 01:52:17;;;;;;;22.03;12.03;;;4.40;99.90;;;;;;5035216;28;20166;-62
2022/04/06 01:54:54;;;;;;;21.53;11.00;;;4.50;99.90;;;;;;5034739;28;20183;-63
2022/04/06 01:57:21;;;;;;;17.67;10.60;;;4.60;99.90;;;;;;5035042;28;20215;-63
2022/04/06 01:59:47;;;;;;;22.90;11.53;;;4.70;99.90;;;;;;5034250;28;20183;-63
2022/04/06 02:02:15;;;;;;;18.23;11.43;;;4.80;99.90;;;;;;5035001;28;20256;-63
2022/04/06 02:04:41;;;;;;;23.67;10.73;;;4.80;99.90;;;;;;5034795;28;20202;-63
2022/04/06 02:07:09;;;;;;;17.53;9.93;;;4.90;99.90;;;;;;4996054;28;20188;-63
2022/04/06 02:09:36;;;;;;;18.27;10.97;;;5.00;99.90;;;;;;5003699;28;20200;-64
2022/04/06 02:12:03;;;;;;;18.80;10.33;;;5.00;99.90;;;;;;4995294;28;20189;-63
2022/04/06 02:14:29;;;;;;;18.80;10.77;;;4.90;99.90;;;;;;4995230;28;20177;-63
2022/04/06 02:16:54;;;;;;;16.80;9.93;;;5.00;99.90;;;;;;4993842;28;20656;-63
2022/04/06 02:19:21;;;;;;;29.17;12.63;;;5.10;99.90;;;;;;4993608;28;20606;-62
2022/04/06 02:21:47;;;;;;;18.43;11.50;;;5.00;99.90;;;;;;4994875;28;20173;-63
2022/04/06 02:24:13;;;;;;;22.87;10.50;;;4.90;99.90;;;;;;4995284;28;20188;-62
2022/04/06 02:26:39;;;;;;;23.13;11.73;;;4.80;99.90;;;;;;5003140;28;20191;-62
2022/04/06 02:29:05;;;;;;;24.47;11.80;;;4.70;99.90;;;;;;4996810;28;20180;-62
2022/04/06 02:31:31;;;;;;;27.30;11.50;;;4.60;99.90;;;;;;5014513;28;20215;-62
2022/04/06 02:33:57;;;;;;;23.77;11.87;;;4.50;99.90;;;;;;5014202;28;20238;-62
2022/04/06 02:36:23;;;;;;;20.33;10.87;;;4.50;99.90;;;;;;5014261;28;20219;-63
2022/04/06 02:38:48;;;;;;;19.10;10.70;;;4.50;99.90;;;;;;5013792;28;20196;-62
2022/04/06 02:41:15;;;;;;;19.17;10.93;;;4.50;99.90;;;;;;5014638;28;20187;-63
2022/04/06 02:43:40;;;;;;;25.83;11.67;;;4.50;99.90;;;;;;5014031;28;20176;-62
2022/04/06 02:46:06;;;;;;;19.17;12.37;;;4.60;99.90;;;;;;5014039;28;20658;-62
2022/04/06 02:48:32;;;;;;;18.77;11.17;;;4.70;99.90;;;;;;5014089;28;20184;-62
2022/04/06 02:50:58;;;;;;;20.47;13.47;;;4.70;99.90;;;;;;5013814;28;20258;-63
2022/04/06 02:53:24;;;;;;;21.03;12.87;;;4.70;99.90;;;;;;5012665;28;20207;-63
2022/04/06 02:55:50;;;;;;;25.77;11.80;;;4.90;99.90;;;;;;5014015;28;20545;-63
2022/04/06 02:58:16;;;;;;;22.97;13.63;;;4.90;99.90;;;;;;5013798;28;20604;-63
2022/04/06 03:00:42;;;;;;;36.80;17.03;;;4.90;99.90;;;;;;5013122;28;20192;-63
2022/04/06 03:03:08;;;;;;;25.97;14.57;;;4.80;99.90;;;;;;5013734;28;20179;-63
2022/04/06 03:05:34;;;;;;;23.13;13.27;;;4.70;99.90;;;;;;5013773;28;20545;-63
2022/04/06 03:08:00;;;;;;;28.33;13.67;;;4.60;99.90;;;;;;5013445;28;20249;-63
2022/04/06 03:10:26;;;;;;;35.37;14.60;;;4.50;99.90;;;;;;5013387;28;20616;-63
2022/04/06 03:12:52;;;;;;;26.20;14.53;;;4.40;99.90;;;;;;5012054;28;20616;-63
2022/04/06 03:15:18;;;;;;;27.47;13.87;;;4.40;99.90;;;;;;5013447;28;20175;-63
2022/04/06 03:17:44;;;;;;;23.73;13.83;;;4.30;99.90;;;;;;5013055;28;20248;-63
2022/04/06 03:20:13;;;;;;;24.73;13.83;;;4.30;99.90;;;;;;5013051;28;20232;-63
2022/04/06 03:22:39;;;;;;;28.97;14.53;;;4.20;99.90;;;;;;5013553;28;20184;-63
2022/04/06 03:25:06;;;;;;;25.20;13.50;;;4.20;99.90;;;;;;5013517;28;20266;-63
2022/04/06 03:27:33;;;;;;;26.57;14.33;;;4.20;99.90;;;;;;5012970;28;20188;-63
2022/04/06 03:30:00;;;;;;;25.27;14.37;;;4.20;99.90;;;;;;5012443;28;20190;-63
2022/04/06 03:32:26;;;;;;;23.17;13.53;;;4.20;99.90;;;;;;5012421;28;20242;-63
2022/04/06 03:34:52;;;;;;;27.83;15.20;;;4.10;99.90;;;;;;5012707;28;20184;-63
2022/04/06 03:37:18;;;;;;;30.33;14.53;;;4.20;99.90;;;;;;5012853;28;20211;-63
2022/04/06 03:39:44;;;;;;;24.57;13.60;;;4.20;99.90;;;;;;5012460;28;20223;-63
2022/04/06 03:42:10;;;;;;;36.20;16.27;;;4.10;99.90;;;;;;5012597;28;20184;-63
2022/04/06 03:44:35;;;;;;;26.70;15.20;;;4.00;99.90;;;;;;5012612;28;20187;-63
2022/04/06 03:47:01;;;;;;;27.87;13.30;;;3.90;99.90;;;;;;5012391;28;20205;-62
2022/04/06 03:49:27;;;;;;;28.43;14.63;;;3.80;99.90;;;;;;5012615;28;20624;-63
2022/04/06 03:51:52;;;;;;;28.63;15.70;;;3.70;99.90;;;;;;5012270;28;20527;-63
2022/04/06 03:54:18;;;;;;;29.97;14.90;;;3.70;99.90;;;;;;5012005;28;20176;-63
2022/04/06 03:56:44;;;;;;;33.87;15.70;;;3.70;99.90;;;;;;5010891;28;20579;-63
2022/04/06 03:59:10;;;;;;;26.60;13.60;;;3.80;99.90;;;;;;5012012;28;20179;-62
2022/04/06 04:01:35;;;;;;;37.80;14.77;;;3.80;99.90;;;;;;5012712;28;20627;-62
2022/04/06 04:04:03;;;;;;;29.13;15.23;;;3.90;99.90;;;;;;5012163;28;21071;-63
2022/04/06 04:06:28;;;;;;;26.67;14.73;;;3.90;99.90;;;;;;5012383;28;20223;-63
2022/04/06 04:08:54;;;;;;;26.43;13.90;;;4.00;99.90;;;;;;5012233;28;20214;-63
2022/04/06 04:11:20;;;;;;;42.93;17.43;;;4.00;99.90;;;;;;5010973;28;20179;-63
2022/04/06 04:13:45;;;;;;;41.67;16.37;;;4.10;99.90;;;;;;5011684;28;20184;-63
2022/04/06 04:16:11;;;;;;;30.00;16.17;;;4.20;99.90;;;;;;5011579;28;20207;-63
2022/04/06 04:18:37;;;;;;;32.00;14.87;;;4.30;99.90;;;;;;5011838;28;20208;-63
2022/04/06 04:23:47;;;;;;;30.53;16.03;;;4.40;99.90;;;;;;5011651;28;20226;-64
2022/04/06 04:26:13;;;;;;;33.03;16.33;;;4.40;99.90;;;;;;5011906;28;20614;-63
2022/04/06 04:28:38;;;;;;;30.17;15.27;;;4.50;99.90;;;;;;5011436;28;20190;-63
2022/04/06 04:31:04;;;;;;;28.67;14.97;;;4.50;99.90;;;;;;5011246;28;20263;-63
2022/04/06 04:33:30;;;;;;;26.10;14.57;;;4.50;99.90;;;;;;5011502;28;20194;-63
2022/04/06 04:35:56;;;;;;;29.93;14.30;;;4.60;99.90;;;;;;5011127;28;20321;-62
2022/04/06 04:38:22;;;;;;;32.17;14.60;;;4.60;99.90;;;;;;4992875;28;20675;-62
2022/04/06 04:40:48;;;;;;;36.57;14.90;;;4.60;99.90;;;;;;5011016;28;20175;-64
2022/04/06 04:43:14;;;;;;;24.63;13.13;;;4.70;99.90;;;;;;5010973;28;20646;-63
2022/04/06 04:45:39;;;;;;;28.73;13.53;;;4.80;99.90;;;;;;5011267;28;20580;-64
2022/04/06 04:48:05;;;;;;;34.80;16.23;;;4.90;99.90;;;;;;5010692;28;20190;-65
2022/04/06 04:50:31;;;;;;;31.83;15.47;;;5.00;99.90;;;;;;5011082;28;20684;-64
2022/04/06 04:52:57;;;;;;;30.30;15.03;;;5.10;99.90;;;;;;5010823;28;20555;-60
2022/04/06 04:55:22;;;;;;;26.37;14.40;;;5.20;99.90;;;;;;5010726;28;20188;-56
2022/04/06 04:57:48;;;;;;;40.67;16.60;;;5.30;99.90;;;;;;5008974;28;20612;-59
2022/04/06 05:00:14;;;;;;;31.97;15.00;;;5.40;99.90;;;;;;5008815;28;20686;-57
2022/04/06 05:02:40;;;;;;;28.60;15.77;;;5.60;99.90;;;;;;5010715;28;20185;-57
2022/04/06 05:05:07;;;;;;;38.33;16.30;;;5.70;99.90;;;;;;5010453;28;20518;-61
2022/04/06 05:07:37;;;;;;;47.47;17.47;;;5.70;99.90;;;;;;5010212;28;20203;-59
2022/04/06 05:10:07;;;;;;;31.30;15.27;;;5.80;99.90;;;;;;5010023;28;20188;-58
2022/04/06 05:12:33;;;;;;;25.47;14.00;;;5.80;99.90;;;;;;5009883;28;20263;-56
2022/04/06 05:14:59;;;;;;;29.87;15.53;;;5.90;99.90;;;;;;5010528;28;20233;-56
2022/04/06 05:17:25;;;;;;;30.53;14.50;;;5.90;99.90;;;;;;5010789;28;20270;-67
2022/04/06 05:19:52;;;;;;;29.47;15.67;;;5.90;99.90;;;;;;5004857;28;20232;-67
2022/04/06 05:22:17;;;;;;;30.73;15.43;;;5.90;99.90;;;;;;5009640;28;20680;-66
2022/04/06 05:24:43;;;;;;;37.37;16.70;;;5.90;99.90;;;;;;4978550;28;20204;-60
2022/04/06 05:27:09;;;;;;;37.23;17.00;;;5.90;99.90;;;;;;5000545;28;20197;-63
2022/04/06 05:29:35;;;;;;;30.20;13.93;;;6.00;99.90;;;;;;5004998;28;20205;-65
2022/04/06 05:32:02;;;;;;;36.00;16.20;;;6.10;99.90;;;;;;5011822;28;20801;-65
2022/04/06 05:34:29;;;;;;;27.03;14.23;;;6.10;99.90;;;;;;5008293;28;20198;-62
2022/04/06 05:36:55;;;;;;;36.43;15.60;;;6.30;99.90;;;;;;5019908;28;20216;-61
2022/04/06 05:39:21;;;;;;;36.37;16.90;;;6.40;99.90;;;;;;5004515;28;20190;-61
2022/04/06 05:41:47;;;;;;;26.73;13.47;;;6.50;99.90;;;;;;5009491;28;20186;-70
2022/04/06 05:44:12;;;;;;;31.33;15.07;;;6.60;99.90;;;;;;5009522;28;20516;-61
2022/04/06 05:46:38;;;;;;;25.50;12.63;;;6.80;99.90;;;;;;4991998;28;20333;-60
2022/04/06 05:49:04;;;;;;;22.50;11.07;;;7.00;99.90;;;;;;5008011;28;20213;-61
2022/04/06 05:51:30;;;;;;;25.10;11.37;;;7.10;99.90;;;;;;4996358;28;20184;-68
2022/04/06 05:53:55;;;;;;;18.50;10.57;;;7.20;99.90;;;;;;4996956;28;20188;-68
2022/04/06 05:56:21;;;;;;;23.43;11.57;;;7.40;99.90;;;;;;5012539;28;20208;-68
2022/04/06 05:58:47;;;;;;;21.20;11.67;;;7.60;99.90;;;;;;5002885;28;20196;-68
2022/04/06 06:01:13;;;;;;;27.00;11.90;;;7.70;99.90;;;;;;5027590;28;20420;-67
2022/04/06 06:03:38;;;;;;;24.57;12.03;;;7.80;99.90;;;;;;5020838;28;20199;-67
2022/04/06 06:06:04;;;;;;;25.53;12.43;;;8.00;99.90;;;;;;5029428;28;20199;-66
2022/04/06 06:08:30;;;;;;;24.10;12.53;;;8.10;99.90;;;;;;5015243;28;20195;-65
2022/04/06 06:10:56;;;;;;;26.37;12.07;;;8.20;99.90;;;;;;5022538;28;20209;-67
2022/04/06 06:13:22;;;;;;;38.67;13.30;;;8.30;99.90;;;;;;5017674;28;20712;-62
2022/04/06 06:15:49;;;;;;;23.37;12.73;;;8.40;99.90;;;;;;5002751;28;20520;-64
2022/04/06 06:18:15;;;;;;;19.37;10.77;;;8.50;99.90;;;;;;5018965;28;20190;-62
2022/04/06 06:20:41;;;;;;;41.23;15.57;;;8.60;99.90;;;;;;5011277;28;20235;-62
2022/04/06 06:23:08;;;;;;;40.97;16.07;;;8.70;99.90;;;;;;5004560;28;20197;-64
2022/04/06 06:25:34;;;;;;;24.73;12.60;;;8.80;99.90;;;;;;5011167;28;20199;-63
2022/04/06 06:27:59;;;;;;;30.53;12.97;;;9.00;99.90;;;;;;5012423;28;20204;-60
2022/04/06 06:30:27;;;;;;;19.93;10.77;;;9.10;99.90;;;;;;5012712;28;20180;-61
2022/04/06 06:32:54;;;;;;;23.17;10.03;;;9.30;99.90;;;;;;5012544;28;20229;-61
2022/04/06 06:35:21;;;;;;;16.20;9.03;;;9.50;99.90;;;;;;5021147;28;20576;-60
2022/04/06 06:37:48;;;;;;;24.30;10.07;;;9.70;99.90;;;;;;5032596;28;20212;-66
2022/04/06 06:40:16;;;;;;;24.57;9.30;;;9.90;99.90;;;;;;5033125;28;20197;-63
2022/04/06 06:42:41;;;;;;;26.40;14.03;;;10.20;99.90;;;;;;5032111;28;20190;-62
2022/04/06 06:45:08;;;;;;;14.93;6.60;;;10.40;99.90;;;;;;5031217;28;20203;-61
2022/04/06 06:47:33;;;;;;;27.97;8.40;;;10.60;99.90;;;;;;5032075;28;20191;-66
2022/04/06 06:49:59;;;;;;;14.33;6.40;;;10.80;99.90;;;;;;5032082;28;20275;-65
2022/04/06 06:52:25;;;;;;;19.70;7.40;;;10.90;99.90;;;;;;5014736;28;20213;-61
2022/04/06 06:54:50;;;;;;;15.03;6.57;;;11.00;99.90;;;;;;5031970;28;20183;-62
2022/04/06 06:57:16;;;;;;;11.93;6.20;;;11.20;99.90;;;;;;5005770;28;20209;-61
2022/04/06 06:59:42;;;;;;;12.23;6.70;;;11.40;99.90;;;;;;5012895;28;20185;-61
2022/04/06 07:02:09;;;;;;;12.13;6.60;;;11.50;99.90;;;;;;4994190;28;20264;-61
2022/04/06 07:04:35;;;;;;;10.37;6.47;;;11.60;99.90;;;;;;4995342;28;20189;-63
2022/04/06 07:07:01;;;;;;;13.77;6.77;;;11.70;99.90;;;;;;4994897;28;20192;-61
2022/04/06 07:09:27;;;;;;;11.13;6.17;;;11.80;99.90;;;;;;5012594;28;20273;-61
2022/04/06 07:11:53;;;;;;;9.60;5.23;;;11.90;99.90;;;;;;5011646;28;20228;-61
2022/04/06 07:14:19;;;;;;;12.40;5.00;;;12.10;99.80;;;;;;5012419;28;20230;-64
2022/04/06 07:16:45;;;;;;;11.67;5.83;;;12.30;99.30;;;;;;4994789;28;20528;-62
2022/04/06 07:19:11;;;;;;;10.03;4.87;;;12.30;99.10;;;;;;5011880;28;20183;-60
2022/04/06 07:21:37;;;;;;;11.17;5.20;;;12.40;98.80;;;;;;5012390;28;20516;-56
2022/04/06 07:24:03;;;;;;;12.67;5.17;;;12.40;99.00;;;;;;5012534;28;20742;-65
2022/04/06 07:26:29;;;;;;;12.23;5.37;;;12.40;98.60;;;;;;5012131;28;20274;-62
2022/04/06 07:28:56;;;;;;;12.00;5.20;;;12.30;98.40;;;;;;5012154;28;20265;-61
2022/04/06 07:31:22;;;;;;;8.57;4.77;;;12.30;98.30;;;;;;5012480;28;20187;-61
2022/04/06 07:33:47;;;;;;;9.67;5.80;;;12.50;98.20;;;;;;5012371;28;20193;-60
2022/04/06 07:36:13;;;;;;;11.47;6.17;;;12.60;98.00;;;;;;5026866;28;20207;-62
2022/04/06 07:38:39;;;;;;;16.63;7.00;;;12.60;97.80;;;;;;5032217;28;20186;-69
2022/04/06 07:41:05;;;;;;;11.97;5.67;;;12.70;97.70;;;;;;5031221;28;20219;-61
2022/04/06 07:43:31;;;;;;;12.40;5.27;;;12.80;97.60;;;;;;5032005;28;20183;-66
2022/04/06 07:45:57;;;;;;;13.97;4.60;;;13.00;97.30;;;;;;5031886;28;20290;-66
2022/04/06 07:48:25;;;;;;;13.90;4.43;;;13.20;96.60;;;;;;5013535;28;20638;-63
2022/04/06 07:50:51;;;;;;;7.00;3.90;;;13.30;96.20;;;;;;5030987;28;20179;-65
2022/04/06 07:53:17;;;;;;;8.90;2.40;;;13.50;95.80;;;;;;5031931;28;20182;-64
2022/04/06 07:55:46;;;;;;;3.10;1.50;;;13.70;95.00;;;;;;5031990;28;20565;-61
2022/04/06 07:58:12;;;;;;;3.57;2.43;;;13.80;94.10;;;;;;5015620;28;20277;-63
2022/04/06 08:00:38;;;;;;;8.33;2.27;;;14.00;93.70;;;;;;4978129;28;20287;-64
2022/04/06 08:03:04;;;;;;;7.03;1.87;;;14.10;93.40;;;;;;5011491;28;20550;-61
2022/04/06 08:05:29;;;;;;;10.57;2.10;;;14.10;93.10;;;;;;4994099;28;20184;-62
2022/04/06 08:07:55;;;;;;;5.10;1.50;;;14.20;92.80;;;;;;4993146;28;20608;-62
2022/04/06 08:10:22;;;;;;;7.73;1.80;;;14.30;92.60;;;;;;4993778;28;20185;-64
2022/04/06 08:12:48;;;;;;;7.40;2.97;;;14.40;92.20;;;;;;5011119;28;20219;-63
2022/04/06 08:15:15;;;;;;;2.77;1.40;;;14.50;91.90;;;;;;5011168;28;20335;-63
2022/04/06 08:17:45;;;;;;;4.53;1.53;;;14.50;91.60;;;;;;5011703;28;20219;-62
2022/04/06 08:20:12;;;;;;;2.13;1.20;;;14.50;91.40;;;;;;5011491;28;20239;-62
2022/04/06 08:22:43;;;;;;;5.73;2.03;;;14.50;91.30;;;;;;4993712;28;20188;-61
2022/04/06 08:25:09;;;;;;;3.50;1.60;;;14.60;91.30;;;;;;5010947;28;20188;-63
2022/04/06 08:53:54;;;;;;;2.20;1.17;;;15.50;85.40;;;;;;5149910;23;20654;-62
2022/04/06 08:56:21;;;;;;;4.30;2.20;;;15.50;84.50;;;;;;4875268;29;20266;-62
2022/04/06 08:58:47;;;;;;;1.17;0.90;;;15.50;83.90;;;;;;4861035;29;20248;-64
2022/04/06 09:01:13;;;;;;;1.83;1.37;;;15.60;83.30;;;;;;4861874;29;20594;-62
2022/04/06 09:03:40;;;;;;;2.77;1.50;;;15.70;83.70;;;;;;4864519;29;20252;-61
2022/04/06 09:06:11;;;;;;;2.60;0.90;;;15.70;83.70;;;;;;4859555;29;20254;-62
2022/04/06 09:08:42;;;;;;;4.50;1.27;;;16.00;83.20;;;;;;4863563;29;20189;-60
2022/04/06 09:11:13;;;;;;;1.47;1.00;;;16.10;82.40;;;;;;4857852;29;20613;-61
2022/04/06 09:13:41;;;;;;;6.40;1.43;;;16.20;80.70;;;;;;4857988;29;20177;-63
2022/04/06 09:16:09;;;;;;;4.60;1.40;;;16.20;80.30;;;;;;4862180;29;20263;-62
2022/04/06 09:18:41;;;;;;;1.27;0.90;;;16.30;80.30;;;;;;4876812;29;20244;-63
2022/04/06 09:21:09;;;;;;;5.33;1.37;;;16.30;78.40;;;;;;4876407;29;20219;-62
2022/04/06 09:23:35;;;;;;;3.27;1.60;;;16.30;78.70;;;;;;4876166;29;20215;-62
2022/04/06 09:26:05;;;;;;;11.20;2.90;;;16.40;78.10;;;;;;4879047;29;20192;-63
2022/04/06 09:28:32;;;;;;;4.47;1.93;;;16.30;78.30;;;;;;4880279;29;20189;-62
2022/04/06 09:30:58;;;;;;;5.53;1.60;;;16.40;76.80;;;;;;4879825;29;20231;-60
2022/04/06 09:33:28;;;;;;;4.63;1.40;;;16.30;76.70;;;;;;4880406;29;20303;-61
2022/04/06 09:35:58;;;;;;;5.03;1.40;;;16.50;77.00;;;;;;4879755;29;20272;-59
2022/04/06 09:38:27;;;;;;;5.07;1.50;;;16.60;77.60;;;;;;4879447;29;20251;-59
2022/04/06 09:41:06;;;;;;;3.97;1.40;;;16.80;76.70;;;;;;4880035;29;20248;-62
2022/04/06 09:43:35;;;;;;;3.47;1.37;;;17.10;75.10;;;;;;4863360;29;20260;-61
2022/04/06 09:49:01;;;;;;;3.70;1.20;;;17.50;74.10;;;;;;4879445;29;20237;-62
2022/04/06 09:51:27;;;;;;;3.03;2.00;;;17.60;72.80;;;;;;4880071;29;20192;-60
2022/04/06 09:53:54;;;;;;;6.07;1.50;;;17.70;72.50;;;;;;4864279;29;20287;-60
2022/04/06 09:56:21;;;;;;;5.93;1.20;;;17.40;72.70;;;;;;4861365;29;20216;-60
2022/04/06 09:58:47;;;;;;;3.93;1.80;;;17.30;72.70;;;;;;4861128;29;20205;-59
2022/04/06 10:01:15;;;;;;;6.10;1.60;;;17.20;73.20;;;;;;4859551;29;20645;-61
2022/04/06 10:03:52;;;;;;;5.80;1.33;;;17.00;72.80;;;;;;4860636;29;20189;-67
2022/04/06 10:06:18;;;;;;;4.53;1.77;;;17.10;73.30;;;;;;4879318;29;20272;-71
2022/04/06 10:08:44;;;;;;;7.13;1.43;;;17.10;73.30;;;;;;4878928;29;20263;-63
2022/04/06 10:11:12;;;;;;;8.10;1.50;;;17.10;73.70;;;;;;4879685;29;20204;-64
2022/04/06 10:13:40;;;;;;;3.77;1.33;;;17.20;73.80;;;;;;4879375;29;20660;-61
2022/04/06 10:16:10;;;;;;;9.93;1.47;;;17.10;72.70;;;;;;4862407;29;20268;-72
2022/04/06 10:18:36;;;;;;;4.90;1.63;;;16.90;72.90;;;;;;4863682;29;20181;-72
2022/04/06 10:21:10;;;;;;;5.13;1.70;;;17.00;72.70;;;;;;4879239;29;20641;-72
2022/04/06 10:23:55;;;;;;;5.87;1.20;;;17.00;72.70;;;;;;4866100;29;20347;-74
2022/04/06 10:26:34;;;;;;;2.23;1.40;;;16.80;72.60;;;;;;4860299;29;20212;-74
2022/04/06 10:29:00;;;;;;;5.97;1.50;;;16.70;72.80;;;;;;4860476;29;20679;-74
2022/04/06 10:31:29;;;;;;;3.00;1.20;;;16.70;71.70;;;;;;4859808;29;20272;-74
2022/04/06 10:34:21;;;;;;;8.03;1.50;;;16.60;71.80;;;;;;4859773;29;20193;-72
2022/04/06 10:37:04;;;;;;;1.90;1.17;;;16.50;71.00;;;;;;4858706;29;20221;-72
2022/04/06 10:39:30;;;;;;;1.63;1.23;;;16.50;71.50;;;;;;4859882;29;20291;-74
2022/04/06 10:42:18;;;;;;;7.87;1.30;;;16.60;71.10;;;;;;4859806;29;20730;-72
2022/04/06 10:44:44;;;;;;;2.37;1.40;;;16.80;71.60;;;;;;4860206;29;20189;-71
2022/04/06 10:47:12;;;;;;;2.37;1.30;;;16.80;71.60;;;;;;4859534;29;20203;-73
2022/04/06 10:49:38;;;;;;;16.17;2.73;;;16.80;70.40;;;;;;4859903;29;20935;-72
2022/04/06 10:52:26;;;;;;;4.40;1.67;;;16.90;70.50;;;;;;4859184;29;20185;-72
2022/04/06 10:54:52;;;;;;;5.13;1.57;;;16.90;70.00;;;;;;4859786;29;20244;-73
2022/04/06 10:57:19;;;;;;;2.60;1.43;;;17.00;70.40;;;;;;4860170;29;20645;-74
2022/04/06 11:00:14;;;;;;;5.07;1.40;;;17.00;70.60;;;;;;4858579;29;20193;-73
2022/04/06 11:02:50;;;;;;;3.93;1.50;;;17.20;70.50;;;;;;4859804;29;20189;-75
2022/04/06 11:05:40;;;;;;;4.70;1.43;;;17.00;70.10;;;;;;4869224;29;20188;-74
2022/04/06 11:10:50;;;;;;;4.43;1.27;;;17.00;70.80;;;;;;4859732;29;20219;-73
2022/04/06 11:13:25;;;;;;;2.60;1.30;;;17.30;70.20;;;;;;4859507;29;20590;-73
2022/04/06 11:15:51;;;;;;;2.90;1.27;;;17.20;70.00;;;;;;4859870;29;20237;-71
2022/04/06 11:18:47;;;;;;;6.33;1.53;;;17.00;70.10;;;;;;4859838;29;20185;-73
2022/04/06 11:21:14;;;;;;;2.17;1.30;;;17.40;69.40;;;;;;4858768;29;20284;-74
2022/04/06 11:23:40;;;;;;;4.80;1.30;;;17.50;69.50;;;;;;4859955;29;20193;-70
2022/04/06 11:26:06;;;;;;;7.70;2.03;;;17.90;68.90;;;;;;4859678;29;20177;-72
2022/04/06 11:28:32;;;;;;;4.33;1.23;;;18.10;68.70;;;;;;4843475;29;20536;-73
2022/04/06 11:31:02;;;;;;;4.93;1.40;;;18.10;68.10;;;;;;4858801;29;20240;-72
2022/04/06 11:33:42;;;;;;;2.20;1.27;;;17.80;68.20;;;;;;4859271;29;20595;-73
2022/04/06 11:36:12;;;;;;;10.40;1.70;;;18.00;68.10;;;;;;4859567;29;20275;-72
2022/04/06 11:38:38;;;;;;;3.73;1.50;;;18.30;67.60;;;;;;4867708;29;20215;-72
2022/04/06 11:41:04;;;;;;;3.27;1.30;;;18.30;67.20;;;;;;4878091;29;20284;-72
2022/04/06 11:43:29;;;;;;;12.57;1.80;;;19.10;66.70;;;;;;4878076;29;20528;-74
2022/04/06 11:45:58;;;;;;;8.55;1.83;;;20.60;63.50;;;;;;4870248;29;20200;-74
2022/04/06 11:48:23;;;;;;;9.45;1.23;;;22.10;59.00;;;;;;4868246;29;20293;-77
2022/04/06 11:50:49;;;;;;;5.25;1.52;;;22.40;56.50;;;;;;4866054;29;20686;-76
2022/04/06 11:53:18;;;;;;;5.45;1.75;;;22.50;56.00;;;;;;4869502;29;20234;-73
2022/04/06 11:55:53;;;;;;;4.47;1.10;;;23.80;54.30;;;;;;4861970;29;20260;-70
2022/04/06 11:58:32;;;;;;;2.60;1.13;;;23.10;53.50;;;;;;4861796;29;20193;-77
2022/04/06 12:01:03;;;;;;;0.95;0.88;;;23.30;52.60;;;;;;4860798;29;20201;-72
2022/04/06 12:03:30;;;;;;;6.85;1.40;;;22.50;53.20;;;;;;4875096;29;20204;-74
2022/04/06 12:05:57;;;;;;;5.25;1.60;;;23.10;53.30;;;;;;4877008;29;20219;-75
2022/04/06 12:08:23;;;;;;;4.32;1.10;;;23.40;51.70;;;;;;4860127;29;20184;-75
2022/04/06 12:10:56;;;;;;;2.97;1.60;;;23.70;51.50;;;;;;4877203;29;20637;-73
2022/04/06 12:13:22;;;;;;;3.35;1.30;;;24.30;50.40;;;;;;4876571;29;20236;-74
2022/04/06 12:15:49;;;;;;;3.85;1.38;;;24.40;49.20;;;;;;4865873;29;20642;-75
2022/04/06 12:18:19;;;;;;;12.38;1.42;;;23.90;50.10;;;;;;4875379;29;20207;-73
2022/04/06 12:20:48;;;;;;;4.88;1.50;;;25.40;48.90;;;;;;4875912;29;20191;-65
2022/04/06 12:23:16;;;;;;;12.63;1.85;;;26.10;46.30;;;;;;4877177;29;20236;-73
2022/04/06 12:25:42;;;;;;;4.95;1.33;;;26.40;45.90;;;;;;4877663;29;20211;-72
2022/04/06 12:28:13;;;;;;;6.95;1.50;;;25.50;45.50;;;;;;4876550;29;20205;-72
2022/04/06 12:31:05;;;;;;;9.23;1.13;;;25.30;46.30;;;;;;4877441;29;20532;-71
2022/04/06 12:33:38;;;;;;;1.23;1.13;;;24.90;46.60;;;;;;4876078;29;20184;-73
2022/04/06 12:36:08;;;;;;;1.48;1.10;;;25.30;45.80;;;;;;4868962;29;20279;-76
2022/04/06 12:38:36;;;;;;;9.85;3.10;;;25.90;45.20;;;;;;4876039;29;20200;-71
2022/04/06 12:41:12;;;;;;;6.05;1.00;;;26.10;45.20;;;;;;4860873;29;20256;-69
2022/04/06 12:43:45;;;;;;;6.88;1.10;;;27.80;43.30;;;;;;4877103;29;20203;-70
2022/04/06 12:46:11;;;;;;;2.92;1.02;;;27.80;41.30;;;;;;4876742;29;20231;-70
2022/04/06 12:48:37;;;;;;;1.70;1.17;;;26.60;43.30;;;;;;4876782;29;20196;-71
2022/04/06 12:51:22;;;;;;;2.20;1.13;;;27.40;42.20;;;;;;4876662;29;20573;-71
2022/04/06 12:53:50;;;;;;;2.20;1.33;;;27.30;42.20;;;;;;4876472;29;20263;-70
2022/04/06 12:56:22;;;;;;;3.88;1.30;;;26.10;42.10;;;;;;4860641;29;20212;-72
2022/04/06 12:59:06;;;;;;;3.83;1.13;;;25.20;43.80;;;;;;4868415;29;20566;-71
2022/04/06 13:01:32;;;;;;;4.50;1.50;;;24.50;45.20;;;;;;4873480;29;20204;-71
2022/04/06 13:03:58;;;;;;;3.25;1.10;;;24.90;44.70;;;;;;4876509;29;20220;-68
2022/04/06 13:06:24;;;;;;;4.28;1.35;;;25.70;43.60;;;;;;4876902;29;20195;-71
2022/04/06 13:08:50;;;;;;;4.15;1.40;;;26.10;43.10;;;;;;4875661;29;20192;-71
2022/04/06 13:11:16;;;;;;;11.82;4.18;;;26.30;42.70;;;;;;4873096;29;20609;-70
2022/04/06 13:13:41;;;;;;;4.05;1.20;;;26.30;42.40;;;;;;4866422;29;20192;-72
2022/04/06 13:16:07;;;;;;;6.55;1.30;;;26.20;42.90;;;;;;4868239;29;20201;-70
2022/04/06 13:18:33;;;;;;;6.28;1.42;;;27.50;41.40;;;;;;4871252;29;20669;-71
2022/04/06 13:20:58;;;;;;;5.68;1.70;;;27.00;41.30;;;;;;4875686;29;20657;-70